sensor_id;sensor_type;location;lat;lon;timestamp;P1;durP1;ratioP1;P2;durP2;ratioP2
25917;SDS011;13899;51.174;4.456;2023-09-07T00:01:25;6.23;;;5.40;;
25917;SDS011;13899;51.174;4.456;2023-09-07T00:03:50;6.13;;;5.63;;
25917;SDS011;13899;51.174;4.456;2023-09-07T00:06:16;6.07;;;5.57;;
25917;SDS011;13899;51.174;4.456;2023-09-07T00:08:42;5.57;;;4.80;;
25917;SDS011;13899;51.174;4.456;2023-09-07T00:11:09;6.85;;;6.00;;
25917;SDS011;13899;51.174;4.456;2023-09-07T00:13:35;7.07;;;5.73;;
25917;SDS011;13899;51.174;4.456;2023-09-07T00:16:01;6.40;;;5.60;;
25917;SDS011;13899;51.174;4.456;2023-09-07T00:18:28;6.13;;;5.50;;
25917;SDS011;13899;51.174;4.456;2023-09-07T00:20:54;6.38;;;5.88;;
25917;SDS011;13899;51.174;4.456;2023-09-07T00:23:20;6.50;;;5.90;;
25917;SDS011;13899;51.174;4.456;2023-09-07T00:25:46;6.10;;;5.43;;
25917;SDS011;13899;51.174;4.456;2023-09-07T00:28:12;6.80;;;5.77;;
25917;SDS011;13899;51.174;4.456;2023-09-07T00:30:38;6.37;;;5.77;;
25917;SDS011;13899;51.174;4.456;2023-09-07T00:33:04;6.85;;;5.88;;
25917;SDS011;13899;51.174;4.456;2023-09-07T00:35:30;6.93;;;5.93;;
25917;SDS011;13899;51.174;4.456;2023-09-07T00:37:55;6.03;;;5.53;;
25917;SDS011;13899;51.174;4.456;2023-09-07T00:40:24;6.63;;;6.03;;
25917;SDS011;13899;51.174;4.456;2023-09-07T00:42:51;5.95;;;5.35;;
25917;SDS011;13899;51.174;4.456;2023-09-07T00:45:17;6.27;;;5.67;;
25917;SDS011;13899;51.174;4.456;2023-09-07T00:47:43;8.73;;;6.57;;
25917;SDS011;13899;51.174;4.456;2023-09-07T00:50:08;6.57;;;5.73;;
25917;SDS011;13899;51.174;4.456;2023-09-07T00:52:34;7.17;;;5.43;;
25917;SDS011;13899;51.174;4.456;2023-09-07T00:55:04;6.38;;;5.78;;
25917;SDS011;13899;51.174;4.456;2023-09-07T00:57:30;6.47;;;5.53;;
25917;SDS011;13899;51.174;4.456;2023-09-07T00:59:57;8.73;;;5.32;;
25917;SDS011;13899;51.174;4.456;2023-09-07T01:02:23;6.53;;;6.03;;
25917;SDS011;13899;51.174;4.456;2023-09-07T01:04:48;6.13;;;5.60;;
25917;SDS011;13899;51.174;4.456;2023-09-07T01:07:23;6.53;;;6.00;;
25917;SDS011;13899;51.174;4.456;2023-09-07T01:09:56;6.40;;;5.80;;
25917;SDS011;13899;51.174;4.456;2023-09-07T01:12:24;6.40;;;5.80;;
25917;SDS011;13899;51.174;4.456;2023-09-07T01:14:50;6.40;;;5.80;;
25917;SDS011;13899;51.174;4.456;2023-09-07T01:17:15;7.03;;;5.73;;
25917;SDS011;13899;51.174;4.456;2023-09-07T01:19:41;6.70;;;6.10;;
25917;SDS011;13899;51.174;4.456;2023-09-07T01:22:07;6.60;;;6.00;;
25917;SDS011;13899;51.174;4.456;2023-09-07T01:24:34;7.05;;;6.10;;
25917;SDS011;13899;51.174;4.456;2023-09-07T01:29:28;6.50;;;5.90;;
25917;SDS011;13899;51.174;4.456;2023-09-07T01:31:54;6.72;;;6.13;;
25917;SDS011;13899;51.174;4.456;2023-09-07T01:34:20;7.32;;;6.72;;
25917;SDS011;13899;51.174;4.456;2023-09-07T01:36:46;7.53;;;6.90;;
25917;SDS011;13899;51.174;4.456;2023-09-07T01:39:12;7.07;;;6.47;;
25917;SDS011;13899;51.174;4.456;2023-09-07T01:41:37;7.20;;;6.60;;
25917;SDS011;13899;51.174;4.456;2023-09-07T01:44:03;7.67;;;7.07;;
25917;SDS011;13899;51.174;4.456;2023-09-07T01:46:29;11.50;;;7.60;;
25917;SDS011;13899;51.174;4.456;2023-09-07T01:48:54;7.97;;;7.27;;
25917;SDS011;13899;51.174;4.456;2023-09-07T01:51:20;6.60;;;6.17;;
25917;SDS011;13899;51.174;4.456;2023-09-07T01:53:48;6.93;;;6.33;;
25917;SDS011;13899;51.174;4.456;2023-09-07T01:56:16;7.07;;;6.43;;
25917;SDS011;13899;51.174;4.456;2023-09-07T01:58:42;8.15;;;7.43;;
25917;SDS011;13899;51.174;4.456;2023-09-07T02:01:19;7.80;;;7.00;;
25917;SDS011;13899;51.174;4.456;2023-09-07T02:03:45;8.55;;;7.85;;
25917;SDS011;13899;51.174;4.456;2023-09-07T02:06:11;8.40;;;7.70;;
25917;SDS011;13899;51.174;4.456;2023-09-07T02:08:36;8.07;;;7.23;;
25917;SDS011;13899;51.174;4.456;2023-09-07T02:11:02;7.57;;;6.97;;
25917;SDS011;13899;51.174;4.456;2023-09-07T02:13:30;7.97;;;7.32;;
25917;SDS011;13899;51.174;4.456;2023-09-07T02:15:55;8.90;;;7.30;;
25917;SDS011;13899;51.174;4.456;2023-09-07T02:18:21;9.03;;;7.87;;
25917;SDS011;13899;51.174;4.456;2023-09-07T02:20:47;8.70;;;7.90;;
25917;SDS011;13899;51.174;4.456;2023-09-07T02:23:12;16.92;;;9.38;;
25917;SDS011;13899;51.174;4.456;2023-09-07T02:25:38;8.93;;;7.77;;
25917;SDS011;13899;51.174;4.456;2023-09-07T02:30:31;8.25;;;7.60;;
25917;SDS011;13899;51.174;4.456;2023-09-07T02:32:57;9.63;;;8.73;;
25917;SDS011;13899;51.174;4.456;2023-09-07T02:35:22;10.07;;;8.77;;
25917;SDS011;13899;51.174;4.456;2023-09-07T02:37:48;9.53;;;8.60;;
25917;SDS011;13899;51.174;4.456;2023-09-07T02:40:13;10.52;;;9.52;;
25917;SDS011;13899;51.174;4.456;2023-09-07T02:45:07;9.13;;;8.35;;
25917;SDS011;13899;51.174;4.456;2023-09-07T02:47:35;10.10;;;9.15;;
25917;SDS011;13899;51.174;4.456;2023-09-07T02:50:01;10.37;;;9.57;;
25917;SDS011;13899;51.174;4.456;2023-09-07T02:52:26;11.23;;;10.23;;
25917;SDS011;13899;51.174;4.456;2023-09-07T02:54:52;10.40;;;9.60;;
25917;SDS011;13899;51.174;4.456;2023-09-07T02:57:17;11.02;;;10.13;;
25917;SDS011;13899;51.174;4.456;2023-09-07T02:59:43;11.00;;;10.10;;
25917;SDS011;13899;51.174;4.456;2023-09-07T03:02:09;10.35;;;9.30;;
25917;SDS011;13899;51.174;4.456;2023-09-07T03:04:34;9.70;;;8.90;;
25917;SDS011;13899;51.174;4.456;2023-09-07T03:07:00;9.87;;;8.93;;
25917;SDS011;13899;51.174;4.456;2023-09-07T03:09:27;10.15;;;9.32;;
25917;SDS011;13899;51.174;4.456;2023-09-07T03:11:52;11.23;;;10.23;;
25917;SDS011;13899;51.174;4.456;2023-09-07T03:14:18;11.80;;;10.63;;
25917;SDS011;13899;51.174;4.456;2023-09-07T03:16:43;11.50;;;10.50;;
25917;SDS011;13899;51.174;4.456;2023-09-07T03:19:09;10.95;;;9.95;;
25917;SDS011;13899;51.174;4.456;2023-09-07T03:21:35;10.53;;;9.63;;
25917;SDS011;13899;51.174;4.456;2023-09-07T03:24:00;10.25;;;9.35;;
25917;SDS011;13899;51.174;4.456;2023-09-07T03:26:26;12.07;;;9.73;;
25917;SDS011;13899;51.174;4.456;2023-09-07T03:28:51;11.20;;;10.23;;
25917;SDS011;13899;51.174;4.456;2023-09-07T03:31:17;11.40;;;10.50;;
25917;SDS011;13899;51.174;4.456;2023-09-07T03:33:43;10.97;;;10.07;;
25917;SDS011;13899;51.174;4.456;2023-09-07T03:36:08;11.13;;;10.15;;
25917;SDS011;13899;51.174;4.456;2023-09-07T03:41:01;11.27;;;10.20;;
25917;SDS011;13899;51.174;4.456;2023-09-07T03:43:26;10.87;;;9.97;;
25917;SDS011;13899;51.174;4.456;2023-09-07T03:45:52;11.03;;;9.97;;
25917;SDS011;13899;51.174;4.456;2023-09-07T03:48:18;11.27;;;10.27;;
25917;SDS011;13899;51.174;4.456;2023-09-07T03:50:44;11.52;;;10.50;;
25917;SDS011;13899;51.174;4.456;2023-09-07T03:53:10;11.63;;;10.45;;
25917;SDS011;13899;51.174;4.456;2023-09-07T03:55:42;11.80;;;10.77;;
25917;SDS011;13899;51.174;4.456;2023-09-07T03:58:11;10.45;;;9.65;;
25917;SDS011;13899;51.174;4.456;2023-09-07T04:00:40;11.52;;;9.85;;
25917;SDS011;13899;51.174;4.456;2023-09-07T04:03:06;12.43;;;11.15;;
25917;SDS011;13899;51.174;4.456;2023-09-07T04:05:32;11.32;;;10.43;;
25917;SDS011;13899;51.174;4.456;2023-09-07T04:07:58;12.77;;;10.97;;
25917;SDS011;13899;51.174;4.456;2023-09-07T04:10:25;12.38;;;11.18;;
25917;SDS011;13899;51.174;4.456;2023-09-07T04:12:51;12.13;;;10.97;;
25917;SDS011;13899;51.174;4.456;2023-09-07T04:15:17;12.38;;;11.38;;
25917;SDS011;13899;51.174;4.456;2023-09-07T04:17:42;13.03;;;11.93;;
25917;SDS011;13899;51.174;4.456;2023-09-07T04:20:08;13.43;;;12.20;;
25917;SDS011;13899;51.174;4.456;2023-09-07T04:22:37;13.68;;;12.57;;
25917;SDS011;13899;51.174;4.456;2023-09-07T04:25:04;12.98;;;11.77;;
25917;SDS011;13899;51.174;4.456;2023-09-07T04:27:30;13.53;;;12.30;;
25917;SDS011;13899;51.174;4.456;2023-09-07T04:29:56;13.45;;;12.30;;
25917;SDS011;13899;51.174;4.456;2023-09-07T04:32:22;14.68;;;13.10;;
25917;SDS011;13899;51.174;4.456;2023-09-07T04:34:47;13.00;;;12.00;;
25917;SDS011;13899;51.174;4.456;2023-09-07T04:37:17;13.52;;;12.43;;
25917;SDS011;13899;51.174;4.456;2023-09-07T04:39:42;13.90;;;12.43;;
25917;SDS011;13899;51.174;4.456;2023-09-07T04:42:08;14.20;;;12.77;;
25917;SDS011;13899;51.174;4.456;2023-09-07T04:44:34;14.35;;;13.25;;
25917;SDS011;13899;51.174;4.456;2023-09-07T04:46:59;14.03;;;12.93;;
25917;SDS011;13899;51.174;4.456;2023-09-07T04:49:25;14.40;;;13.15;;
25917;SDS011;13899;51.174;4.456;2023-09-07T04:51:54;13.73;;;12.60;;
25917;SDS011;13899;51.174;4.456;2023-09-07T04:54:20;14.30;;;13.00;;
25917;SDS011;13899;51.174;4.456;2023-09-07T04:56:45;14.93;;;13.60;;
25917;SDS011;13899;51.174;4.456;2023-09-07T04:59:11;14.27;;;13.00;;
25917;SDS011;13899;51.174;4.456;2023-09-07T05:01:36;14.68;;;13.18;;
25917;SDS011;13899;51.174;4.456;2023-09-07T05:04:02;13.23;;;12.23;;
25917;SDS011;13899;51.174;4.456;2023-09-07T05:06:29;15.38;;;13.68;;
25917;SDS011;13899;51.174;4.456;2023-09-07T05:08:54;13.10;;;12.07;;
25917;SDS011;13899;51.174;4.456;2023-09-07T05:11:20;15.07;;;13.53;;
25917;SDS011;13899;51.174;4.456;2023-09-07T05:13:46;13.90;;;12.80;;
25917;SDS011;13899;51.174;4.456;2023-09-07T05:16:11;14.13;;;12.83;;
25917;SDS011;13899;51.174;4.456;2023-09-07T05:18:37;15.30;;;13.97;;
25917;SDS011;13899;51.174;4.456;2023-09-07T05:21:12;17.13;;;13.90;;
25917;SDS011;13899;51.174;4.456;2023-09-07T05:23:39;21.85;;;14.85;;
25917;SDS011;13899;51.174;4.456;2023-09-07T05:26:05;14.50;;;13.07;;
25917;SDS011;13899;51.174;4.456;2023-09-07T05:28:31;16.45;;;14.73;;
25917;SDS011;13899;51.174;4.456;2023-09-07T05:30:56;15.23;;;13.93;;
25917;SDS011;13899;51.174;4.456;2023-09-07T05:33:22;15.82;;;14.38;;
25917;SDS011;13899;51.174;4.456;2023-09-07T05:35:48;16.77;;;14.03;;
25917;SDS011;13899;51.174;4.456;2023-09-07T05:38:13;15.45;;;14.10;;
25917;SDS011;13899;51.174;4.456;2023-09-07T05:40:40;15.17;;;13.73;;
25917;SDS011;13899;51.174;4.456;2023-09-07T05:43:06;14.68;;;13.43;;
25917;SDS011;13899;51.174;4.456;2023-09-07T05:45:36;14.40;;;12.90;;
25917;SDS011;13899;51.174;4.456;2023-09-07T05:48:04;14.93;;;13.40;;
25917;SDS011;13899;51.174;4.456;2023-09-07T05:50:31;15.85;;;14.32;;
25917;SDS011;13899;51.174;4.456;2023-09-07T05:52:58;15.05;;;13.55;;
25917;SDS011;13899;51.174;4.456;2023-09-07T05:55:24;14.50;;;13.13;;
25917;SDS011;13899;51.174;4.456;2023-09-07T05:57:49;14.27;;;12.05;;
25917;SDS011;13899;51.174;4.456;2023-09-07T06:00:15;13.33;;;12.17;;
25917;SDS011;13899;51.174;4.456;2023-09-07T06:02:42;14.13;;;13.00;;
25917;SDS011;13899;51.174;4.456;2023-09-07T06:05:09;14.20;;;12.90;;
25917;SDS011;13899;51.174;4.456;2023-09-07T06:07:35;14.37;;;13.20;;
25917;SDS011;13899;51.174;4.456;2023-09-07T06:10:01;14.25;;;13.00;;
25917;SDS011;13899;51.174;4.456;2023-09-07T06:12:27;13.37;;;12.27;;
25917;SDS011;13899;51.174;4.456;2023-09-07T06:14:53;13.43;;;12.18;;
25917;SDS011;13899;51.174;4.456;2023-09-07T06:17:18;13.03;;;11.67;;
25917;SDS011;13899;51.174;4.456;2023-09-07T06:19:44;13.13;;;11.50;;
25917;SDS011;13899;51.174;4.456;2023-09-07T06:22:10;13.18;;;11.88;;
25917;SDS011;13899;51.174;4.456;2023-09-07T06:24:36;13.03;;;11.57;;
25917;SDS011;13899;51.174;4.456;2023-09-07T06:27:02;11.87;;;10.87;;
25917;SDS011;13899;51.174;4.456;2023-09-07T06:29:27;14.47;;;12.50;;
25917;SDS011;13899;51.174;4.456;2023-09-07T06:31:53;11.87;;;10.87;;
25917;SDS011;13899;51.174;4.456;2023-09-07T06:34:19;17.03;;;11.30;;
25917;SDS011;13899;51.174;4.456;2023-09-07T06:36:44;11.90;;;10.63;;
25917;SDS011;13899;51.174;4.456;2023-09-07T06:39:10;13.07;;;11.88;;
25917;SDS011;13899;51.174;4.456;2023-09-07T06:41:35;12.80;;;11.40;;
25917;SDS011;13899;51.174;4.456;2023-09-07T06:44:01;11.83;;;10.73;;
25917;SDS011;13899;51.174;4.456;2023-09-07T06:46:27;11.87;;;10.80;;
25917;SDS011;13899;51.174;4.456;2023-09-07T06:48:52;11.63;;;10.47;;
25917;SDS011;13899;51.174;4.456;2023-09-07T06:51:18;10.93;;;10.03;;
25917;SDS011;13899;51.174;4.456;2023-09-07T06:53:43;10.80;;;9.80;;
25917;SDS011;13899;51.174;4.456;2023-09-07T06:56:09;11.90;;;10.80;;
25917;SDS011;13899;51.174;4.456;2023-09-07T06:58:35;11.97;;;10.50;;
25917;SDS011;13899;51.174;4.456;2023-09-07T07:01:01;11.17;;;10.13;;
25917;SDS011;13899;51.174;4.456;2023-09-07T07:03:27;10.90;;;9.88;;
25917;SDS011;13899;51.174;4.456;2023-09-07T07:05:54;14.20;;;10.27;;
25917;SDS011;13899;51.174;4.456;2023-09-07T07:08:20;12.10;;;10.38;;
25917;SDS011;13899;51.174;4.456;2023-09-07T07:10:46;11.37;;;10.13;;
25917;SDS011;13899;51.174;4.456;2023-09-07T07:13:12;10.50;;;9.37;;
25917;SDS011;13899;51.174;4.456;2023-09-07T07:15:38;10.83;;;9.10;;
25917;SDS011;13899;51.174;4.456;2023-09-07T07:18:03;10.63;;;9.73;;
25917;SDS011;13899;51.174;4.456;2023-09-07T07:20:41;10.02;;;9.23;;
25917;SDS011;13899;51.174;4.456;2023-09-07T07:23:08;9.93;;;9.02;;
25917;SDS011;13899;51.174;4.456;2023-09-07T07:25:34;10.43;;;9.53;;
25917;SDS011;13899;51.174;4.456;2023-09-07T07:28:00;10.23;;;9.03;;
25917;SDS011;13899;51.174;4.456;2023-09-07T07:30:30;10.20;;;9.23;;
25917;SDS011;13899;51.174;4.456;2023-09-07T07:32:56;9.75;;;8.88;;
25917;SDS011;13899;51.174;4.456;2023-09-07T07:35:22;8.93;;;8.23;;
25917;SDS011;13899;51.174;4.456;2023-09-07T07:37:49;8.77;;;8.00;;
25917;SDS011;13899;51.174;4.456;2023-09-07T07:40:15;8.10;;;7.40;;
25917;SDS011;13899;51.174;4.456;2023-09-07T07:42:42;9.52;;;8.68;;
25917;SDS011;13899;51.174;4.456;2023-09-07T07:45:08;8.07;;;7.30;;
25917;SDS011;13899;51.174;4.456;2023-09-07T07:47:34;8.87;;;7.17;;
25917;SDS011;13899;51.174;4.456;2023-09-07T07:50:00;8.80;;;7.90;;
25917;SDS011;13899;51.174;4.456;2023-09-07T07:52:25;8.40;;;7.63;;
25917;SDS011;13899;51.174;4.456;2023-09-07T07:54:51;8.13;;;6.83;;
25917;SDS011;13899;51.174;4.456;2023-09-07T07:59:43;9.00;;;6.90;;
25917;SDS011;13899;51.174;4.456;2023-09-07T08:02:09;6.43;;;5.83;;
25917;SDS011;13899;51.174;4.456;2023-09-07T08:04:35;7.20;;;6.60;;
25917;SDS011;13899;51.174;4.456;2023-09-07T08:07:01;6.73;;;6.07;;
25917;SDS011;13899;51.174;4.456;2023-09-07T08:09:30;6.55;;;5.82;;
25917;SDS011;13899;51.174;4.456;2023-09-07T08:11:56;6.60;;;5.90;;
25917;SDS011;13899;51.174;4.456;2023-09-07T08:14:22;6.25;;;5.70;;
25917;SDS011;13899;51.174;4.456;2023-09-07T08:16:52;6.60;;;5.97;;
25917;SDS011;13899;51.174;4.456;2023-09-07T08:19:18;6.50;;;5.97;;
25917;SDS011;13899;51.174;4.456;2023-09-07T08:21:44;7.37;;;5.73;;
25917;SDS011;13899;51.174;4.456;2023-09-07T08:26:36;6.95;;;5.35;;
25917;SDS011;13899;51.174;4.456;2023-09-07T08:29:02;6.68;;;6.00;;
25917;SDS011;13899;51.174;4.456;2023-09-07T08:31:30;6.07;;;5.20;;
25917;SDS011;13899;51.174;4.456;2023-09-07T08:34:06;5.72;;;5.13;;
25917;SDS011;13899;51.174;4.456;2023-09-07T08:36:34;5.97;;;5.43;;
25917;SDS011;13899;51.174;4.456;2023-09-07T08:39:00;6.40;;;4.23;;
25917;SDS011;13899;51.174;4.456;2023-09-07T08:41:30;7.13;;;5.32;;
25917;SDS011;13899;51.174;4.456;2023-09-07T08:44:02;6.18;;;4.80;;
25917;SDS011;13899;51.174;4.456;2023-09-07T08:46:29;5.20;;;4.70;;
25917;SDS011;13899;51.174;4.456;2023-09-07T08:51:24;6.85;;;4.70;;
25917;SDS011;13899;51.174;4.456;2023-09-07T08:53:52;4.55;;;4.15;;
25917;SDS011;13899;51.174;4.456;2023-09-07T08:56:18;5.67;;;5.07;;
25917;SDS011;13899;51.174;4.456;2023-09-07T08:58:46;4.95;;;4.47;;
25917;SDS011;13899;51.174;4.456;2023-09-07T09:01:14;17.85;;;6.28;;
25917;SDS011;13899;51.174;4.456;2023-09-07T09:03:41;7.22;;;4.13;;
25917;SDS011;13899;51.174;4.456;2023-09-07T09:06:07;4.80;;;4.40;;
25917;SDS011;13899;51.174;4.456;2023-09-07T09:08:43;6.15;;;4.28;;
25917;SDS011;13899;51.174;4.456;2023-09-07T09:11:17;10.15;;;5.05;;
25917;SDS011;13899;51.174;4.456;2023-09-07T09:13:44;4.85;;;4.00;;
25917;SDS011;13899;51.174;4.456;2023-09-07T09:16:10;8.13;;;3.78;;
25917;SDS011;13899;51.174;4.456;2023-09-07T09:18:38;7.18;;;3.38;;
25917;SDS011;13899;51.174;4.456;2023-09-07T09:21:11;6.40;;;4.30;;
25917;SDS011;13899;51.174;4.456;2023-09-07T09:23:39;5.32;;;4.70;;
25917;SDS011;13899;51.174;4.456;2023-09-07T09:28:32;3.63;;;3.33;;
25917;SDS011;13899;51.174;4.456;2023-09-07T09:30:59;3.65;;;3.35;;
25917;SDS011;13899;51.174;4.456;2023-09-07T09:33:27;3.35;;;2.58;;
25917;SDS011;13899;51.174;4.456;2023-09-07T09:35:55;4.00;;;3.60;;
25917;SDS011;13899;51.174;4.456;2023-09-07T09:38:21;3.85;;;2.42;;
25917;SDS011;13899;51.174;4.456;2023-09-07T09:40:47;2.78;;;2.22;;
25917;SDS011;13899;51.174;4.456;2023-09-07T09:43:13;5.95;;;3.70;;
25917;SDS011;13899;51.174;4.456;2023-09-07T09:45:39;2.40;;;1.90;;
25917;SDS011;13899;51.174;4.456;2023-09-07T09:48:05;2.45;;;2.17;;
25917;SDS011;13899;51.174;4.456;2023-09-07T09:50:31;4.90;;;2.90;;
25917;SDS011;13899;51.174;4.456;2023-09-07T09:53:06;5.10;;;3.47;;
25917;SDS011;13899;51.174;4.456;2023-09-07T09:55:35;3.50;;;3.28;;
25917;SDS011;13899;51.174;4.456;2023-09-07T09:58:01;4.47;;;4.18;;
25917;SDS011;13899;51.174;4.456;2023-09-07T10:00:27;4.32;;;2.22;;
25917;SDS011;13899;51.174;4.456;2023-09-07T10:05:25;5.03;;;4.55;;
25917;SDS011;13899;51.174;4.456;2023-09-07T10:07:52;2.70;;;2.35;;
25917;SDS011;13899;51.174;4.456;2023-09-07T10:10:18;2.80;;;2.60;;
25917;SDS011;13899;51.174;4.456;2023-09-07T10:12:50;2.60;;;2.40;;
25917;SDS011;13899;51.174;4.456;2023-09-07T10:15:23;3.40;;;2.03;;
25917;SDS011;13899;51.174;4.456;2023-09-07T10:17:50;4.63;;;1.73;;
25917;SDS011;13899;51.174;4.456;2023-09-07T10:20:27;2.78;;;2.50;;
25917;SDS011;13899;51.174;4.456;2023-09-07T10:23:03;3.42;;;3.17;;
25917;SDS011;13899;51.174;4.456;2023-09-07T10:25:30;2.60;;;2.00;;
25917;SDS011;13899;51.174;4.456;2023-09-07T10:27:57;5.80;;;2.65;;
25917;SDS011;13899;51.174;4.456;2023-09-07T10:30:24;3.42;;;2.30;;
25917;SDS011;13899;51.174;4.456;2023-09-07T10:32:50;4.22;;;3.00;;
25917;SDS011;13899;51.174;4.456;2023-09-07T10:35:16;2.30;;;2.10;;
25917;SDS011;13899;51.174;4.456;2023-09-07T10:37:44;3.78;;;2.70;;
25917;SDS011;13899;51.174;4.456;2023-09-07T10:40:23;3.53;;;3.22;;
25917;SDS011;13899;51.174;4.456;2023-09-07T10:42:48;2.08;;;1.98;;
25917;SDS011;13899;51.174;4.456;2023-09-07T10:45:15;1.50;;;1.40;;
25917;SDS011;13899;51.174;4.456;2023-09-07T10:47:44;3.58;;;2.13;;
25917;SDS011;13899;51.174;4.456;2023-09-07T10:50:14;7.15;;;2.13;;
25917;SDS011;13899;51.174;4.456;2023-09-07T10:52:40;2.05;;;1.90;;
25917;SDS011;13899;51.174;4.456;2023-09-07T10:55:07;2.20;;;2.03;;
25917;SDS011;13899;51.174;4.456;2023-09-07T10:57:46;2.17;;;1.52;;
25917;SDS011;13899;51.174;4.456;2023-09-07T11:00:13;4.25;;;1.60;;
25917;SDS011;13899;51.174;4.456;2023-09-07T11:02:40;2.30;;;1.67;;
25917;SDS011;13899;51.174;4.456;2023-09-07T11:05:06;3.58;;;1.55;;
25917;SDS011;13899;51.174;4.456;2023-09-07T11:07:33;5.85;;;1.80;;
25917;SDS011;13899;51.174;4.456;2023-09-07T11:09:59;3.30;;;1.85;;
25917;SDS011;13899;51.174;4.456;2023-09-07T11:14:50;3.83;;;1.98;;
25917;SDS011;13899;51.174;4.456;2023-09-07T11:17:17;3.38;;;1.27;;
25917;SDS011;13899;51.174;4.456;2023-09-07T11:19:43;2.28;;;1.20;;
25917;SDS011;13899;51.174;4.456;2023-09-07T11:22:12;2.00;;;1.77;;
25917;SDS011;13899;51.174;4.456;2023-09-07T11:24:39;2.55;;;1.52;;
25917;SDS011;13899;51.174;4.456;2023-09-07T11:27:05;2.55;;;1.58;;
25917;SDS011;13899;51.174;4.456;2023-09-07T11:32:09;4.72;;;1.73;;
25917;SDS011;13899;51.174;4.456;2023-09-07T11:34:35;1.80;;;1.52;;
25917;SDS011;13899;51.174;4.456;2023-09-07T11:37:12;3.47;;;1.73;;
25917;SDS011;13899;51.174;4.456;2023-09-07T11:42:03;1.92;;;1.73;;
25917;SDS011;13899;51.174;4.456;2023-09-07T11:46:54;1.70;;;1.48;;
25917;SDS011;13899;51.174;4.456;2023-09-07T11:51:46;2.00;;;1.60;;
25917;SDS011;13899;51.174;4.456;2023-09-07T11:54:12;3.05;;;1.40;;
25917;SDS011;13899;51.174;4.456;2023-09-07T11:59:07;2.17;;;1.58;;
25917;SDS011;13899;51.174;4.456;2023-09-07T12:01:34;2.45;;;1.65;;
25917;SDS011;13899;51.174;4.456;2023-09-07T12:04:00;2.83;;;1.52;;
25917;SDS011;13899;51.174;4.456;2023-09-07T12:09:01;5.20;;;1.40;;
25917;SDS011;13899;51.174;4.456;2023-09-07T12:11:28;2.30;;;1.40;;
25917;SDS011;13899;51.174;4.456;2023-09-07T12:13:53;2.42;;;1.60;;
25917;SDS011;13899;51.174;4.456;2023-09-07T12:18:44;1.50;;;1.40;;
25917;SDS011;13899;51.174;4.456;2023-09-07T12:21:10;1.50;;;1.40;;
25917;SDS011;13899;51.174;4.456;2023-09-07T12:26:01;2.00;;;1.60;;
25917;SDS011;13899;51.174;4.456;2023-09-07T12:28:29;2.35;;;1.40;;
25917;SDS011;13899;51.174;4.456;2023-09-07T12:30:57;1.73;;;1.63;;
25917;SDS011;13899;51.174;4.456;2023-09-07T12:33:26;1.45;;;1.35;;
25917;SDS011;13899;51.174;4.456;2023-09-07T12:35:54;1.50;;;1.40;;
25917;SDS011;13899;51.174;4.456;2023-09-07T12:38:20;3.25;;;1.50;;
25917;SDS011;13899;51.174;4.456;2023-09-07T12:40:49;2.25;;;1.50;;
25917;SDS011;13899;51.174;4.456;2023-09-07T12:48:07;2.13;;;1.40;;
25917;SDS011;13899;51.174;4.456;2023-09-07T12:52:58;1.40;;;1.25;;
25917;SDS011;13899;51.174;4.456;2023-09-07T12:57:49;6.30;;;1.60;;
25917;SDS011;13899;51.174;4.456;2023-09-07T13:02:42;1.50;;;1.40;;
25917;SDS011;13899;51.174;4.456;2023-09-07T13:05:08;1.60;;;1.50;;
25917;SDS011;13899;51.174;4.456;2023-09-07T13:07:34;1.98;;;1.30;;
25917;SDS011;13899;51.174;4.456;2023-09-07T13:10:00;3.17;;;1.33;;
25917;SDS011;13899;51.174;4.456;2023-09-07T13:12:32;3.00;;;1.67;;
25917;SDS011;13899;51.174;4.456;2023-09-07T13:14:58;2.58;;;2.38;;
25917;SDS011;13899;51.174;4.456;2023-09-07T13:19:49;3.05;;;1.40;;
25917;SDS011;13899;51.174;4.456;2023-09-07T13:24:41;3.08;;;1.42;;
25917;SDS011;13899;51.174;4.456;2023-09-07T13:27:07;1.80;;;1.30;;
25917;SDS011;13899;51.174;4.456;2023-09-07T13:29:35;3.72;;;1.65;;
25917;SDS011;13899;51.174;4.456;2023-09-07T13:32:01;2.08;;;1.30;;
25917;SDS011;13899;51.174;4.456;2023-09-07T13:34:27;2.83;;;1.33;;
25917;SDS011;13899;51.174;4.456;2023-09-07T13:36:53;2.75;;;1.50;;
25917;SDS011;13899;51.174;4.456;2023-09-07T13:39:19;2.88;;;1.65;;
25917;SDS011;13899;51.174;4.456;2023-09-07T13:41:45;1.77;;;1.38;;
25917;SDS011;13899;51.174;4.456;2023-09-07T13:44:11;3.25;;;1.65;;
25917;SDS011;13899;51.174;4.456;2023-09-07T13:46:38;1.50;;;1.40;;
25917;SDS011;13899;51.174;4.456;2023-09-07T13:49:03;2.47;;;1.60;;
25917;SDS011;13899;51.174;4.456;2023-09-07T13:51:29;2.10;;;1.30;;
25917;SDS011;13899;51.174;4.456;2023-09-07T13:54:00;1.88;;;1.50;;
25917;SDS011;13899;51.174;4.456;2023-09-07T13:56:26;3.55;;;1.42;;
25917;SDS011;13899;51.174;4.456;2023-09-07T13:58:51;4.60;;;1.65;;
25917;SDS011;13899;51.174;4.456;2023-09-07T14:01:17;2.30;;;1.40;;
25917;SDS011;13899;51.174;4.456;2023-09-07T14:03:42;2.15;;;1.27;;
25917;SDS011;13899;51.174;4.456;2023-09-07T14:06:08;1.92;;;1.50;;
25917;SDS011;13899;51.174;4.456;2023-09-07T14:08:34;2.08;;;1.75;;
25917;SDS011;13899;51.174;4.456;2023-09-07T14:11:00;1.88;;;1.40;;
25917;SDS011;13899;51.174;4.456;2023-09-07T14:13:26;1.63;;;1.35;;
25917;SDS011;13899;51.174;4.456;2023-09-07T14:15:51;1.50;;;1.40;;
25917;SDS011;13899;51.174;4.456;2023-09-07T14:18:17;3.47;;;1.60;;
25917;SDS011;13899;51.174;4.456;2023-09-07T14:20:42;2.33;;;1.67;;
25917;SDS011;13899;51.174;4.456;2023-09-07T14:25:34;1.70;;;1.60;;
25917;SDS011;13899;51.174;4.456;2023-09-07T14:30:25;5.68;;;2.17;;
25917;SDS011;13899;51.174;4.456;2023-09-07T14:32:51;2.78;;;1.70;;
25917;SDS011;13899;51.174;4.456;2023-09-07T14:42:33;2.97;;;1.60;;
25917;SDS011;13899;51.174;4.456;2023-09-07T14:44:59;2.58;;;1.80;;
25917;SDS011;13899;51.174;4.456;2023-09-07T14:47:28;2.33;;;1.60;;
25917;SDS011;13899;51.174;4.456;2023-09-07T14:49:53;1.88;;;1.65;;
25917;SDS011;13899;51.174;4.456;2023-09-07T14:54:47;4.30;;;1.70;;
25917;SDS011;13899;51.174;4.456;2023-09-07T14:57:13;2.78;;;2.10;;
25917;SDS011;13899;51.174;4.456;2023-09-07T14:59:39;2.70;;;1.85;;
25917;SDS011;13899;51.174;4.456;2023-09-07T15:02:07;5.95;;;1.85;;
25917;SDS011;13899;51.174;4.456;2023-09-07T15:04:33;3.10;;;2.40;;
25917;SDS011;13899;51.174;4.456;2023-09-07T15:06:59;2.95;;;2.15;;
25917;SDS011;13899;51.174;4.456;2023-09-07T15:09:25;3.88;;;2.53;;
25917;SDS011;13899;51.174;4.456;2023-09-07T15:11:50;3.03;;;2.10;;
25917;SDS011;13899;51.174;4.456;2023-09-07T15:14:18;2.78;;;2.10;;
25917;SDS011;13899;51.174;4.456;2023-09-07T15:16:43;4.63;;;2.20;;
25917;SDS011;13899;51.174;4.456;2023-09-07T15:19:09;4.32;;;2.50;;
25917;SDS011;13899;51.174;4.456;2023-09-07T15:21:35;8.68;;;2.47;;
25917;SDS011;13899;51.174;4.456;2023-09-07T15:24:00;2.33;;;2.22;;
25917;SDS011;13899;51.174;4.456;2023-09-07T15:26:26;4.82;;;2.22;;
25917;SDS011;13899;51.174;4.456;2023-09-07T15:28:52;7.00;;;2.63;;
25917;SDS011;13899;51.174;4.456;2023-09-07T15:31:17;3.17;;;2.00;;
25917;SDS011;13899;51.174;4.456;2023-09-07T15:33:43;3.57;;;2.30;;
25917;SDS011;13899;51.174;4.456;2023-09-07T15:36:08;3.00;;;2.50;;
25917;SDS011;13899;51.174;4.456;2023-09-07T15:38:34;3.10;;;2.53;;
25917;SDS011;13899;51.174;4.456;2023-09-07T15:41:00;3.63;;;2.70;;
25917;SDS011;13899;51.174;4.456;2023-09-07T15:43:30;4.43;;;2.95;;
25917;SDS011;13899;51.174;4.456;2023-09-07T15:45:57;3.05;;;2.47;;
25917;SDS011;13899;51.174;4.456;2023-09-07T15:55:40;2.83;;;2.60;;
25917;SDS011;13899;51.174;4.456;2023-09-07T15:58:07;3.35;;;2.28;;
25917;SDS011;13899;51.174;4.456;2023-09-07T16:00:32;2.87;;;2.60;;